Time;durP1;ratioP1;P1;durP2;ratioP2;P2;SDS_P1;SDS_P2;PMS_P1;PMS_P2;Temp;Humidity;BMP_temperature;BMP_pressure;BME280_temperature;BME280_humidity;BME280_pressure;Samples;Min_cycle;Max_cycle;Signal;HPM_P1;HPM_P2
2022/12/24 00:03:01;;;;;;;94.50;44.20;;;;;;;7.39;89.49;99084.15;125976;1302;107692;-74
2022/12/24 00:06:08;;;;;;;91.40;43.10;;;;;;;7.43;89.28;99082.54;126003;1305;107553;-74
2022/12/24 00:09:13;;;;;;;83.00;40.30;;;;;;;7.45;89.29;99081.00;125903;1306;106540;-75
2022/12/24 00:12:19;;;;;;;76.80;40.10;;;;;;;7.49;89.31;99079.56;125920;1306;107547;-78
2022/12/24 00:15:24;;;;;;;81.40;41.70;;;;;;;7.51;89.34;99084.91;125973;1302;107585;-74
2022/12/24 00:18:30;;;;;;;87.30;42.10;;;;;;;7.50;89.42;99088.16;125967;1310;106569;-75
2022/12/24 00:21:35;;;;;;;71.20;33.90;;;;;;;7.49;89.31;99087.03;125902;1305;108632;-75
2022/12/24 00:24:41;;;;;;;68.70;31.80;;;;;;;7.50;89.29;99087.14;125917;1307;107560;-75
2022/12/24 00:27:46;;;;;;;69.10;32.80;;;;;;;7.51;89.25;99087.70;125876;1297;107338;-75
2022/12/24 00:30:52;;;;;;;77.00;35.60;;;;;;;7.54;89.53;99091.13;125919;1306;108715;-76
2022/12/24 00:33:57;;;;;;;70.90;34.00;;;;;;;7.55;89.17;99090.45;125975;1306;107533;-75
2022/12/24 00:37:03;;;;;;;74.80;36.20;;;;;;;7.57;89.37;99090.77;125959;1305;107461;-75
2022/12/24 00:40:10;;;;;;;71.30;34.90;;;;;;;7.57;89.23;99096.94;125870;1306;106115;-75
2022/12/24 00:43:16;;;;;;;78.40;37.30;;;;;;;7.57;89.28;99095.95;125934;1294;107574;-75
2022/12/24 00:46:21;;;;;;;66.90;30.40;;;;;;;7.54;89.21;99092.02;125828;1305;107536;-76
2022/12/24 00:49:27;;;;;;;67.40;31.10;;;;;;;7.53;89.19;99093.89;126001;1306;107598;-75
2022/12/24 00:52:33;;;;;;;66.10;31.90;;;;;;;7.52;89.17;99092.68;125950;1299;107569;-76
2022/12/24 00:55:38;;;;;;;80.30;36.10;;;;;;;7.53;89.17;99091.20;125884;1307;107583;-74
2022/12/24 00:58:44;;;;;;;72.40;36.40;;;;;;;7.56;89.29;99092.85;125904;1310;107606;-75
2022/12/24 01:01:49;;;;;;;71.40;34.70;;;;;;;7.60;89.25;99086.96;125876;1306;106568;-75
2022/12/24 01:05:10;;;;;;;66.00;31.80;;;;;;;7.57;88.92;99084.73;126028;1307;107561;-75
2022/12/24 01:08:15;;;;;;;71.50;33.80;;;;;;;7.47;89.02;99086.13;125948;1297;108688;-75
2022/12/24 01:11:21;;;;;;;73.40;33.40;;;;;;;7.40;89.20;99088.27;125876;1305;107635;-74
2022/12/24 01:14:26;;;;;;;69.60;31.70;;;;;;;7.38;89.35;99083.89;125883;1306;107339;-75
2022/12/24 01:17:34;;;;;;;70.00;33.00;;;;;;;7.40;89.22;99084.06;125911;1306;107692;-75
2022/12/24 01:20:40;;;;;;;74.70;35.40;;;;;;;7.45;89.29;99080.52;126082;1307;107544;-75
2022/12/24 01:23:46;;;;;;;70.60;34.30;;;;;;;7.49;89.11;99080.66;125869;1305;107566;-74
2022/12/24 01:26:51;;;;;;;65.60;33.20;;;;;;;7.51;89.31;99077.05;124908;1310;1427364;-75
2022/12/24 01:29:57;;;;;;;58.90;31.40;;;;;;;7.50;89.11;99077.52;125878;1306;108640;-75
2022/12/24 01:33:02;;;;;;;58.60;29.40;;;;;;;7.45;88.90;99080.89;125876;1298;106982;-75
2022/12/24 01:36:09;;;;;;;46.40;23.40;;;;;;;7.37;88.92;99079.48;125982;1307;107556;-75
2022/12/24 01:39:15;;;;;;;53.60;26.00;;;;;;;7.30;89.17;99074.91;125963;1306;108620;-77
2022/12/24 01:45:49;;;;;;;60.40;28.90;;;;;;;7.32;89.32;99070.47;125889;1299;107572;-75
2022/12/24 01:48:58;;;;;;;56.60;29.20;;;;;;;7.34;89.50;99070.34;125953;1304;107380;-75
2022/12/24 01:52:09;;;;;;;57.40;28.20;;;;;;;7.38;89.46;99072.27;125878;1306;107506;-75
2022/12/24 01:55:18;;;;;;;52.10;28.20;;;;;;;7.37;89.02;99073.63;125887;1304;107411;-74
2022/12/24 01:58:26;;;;;;;49.30;23.60;;;;;;;7.33;89.11;99067.78;125921;1307;107417;-74
2022/12/24 02:01:31;;;;;;;49.70;23.70;;;;;;;7.31;89.10;99066.56;125931;1305;108725;-75
2022/12/24 02:04:41;;;;;;;58.10;27.40;;;;;;;7.33;89.28;99070.63;125975;1297;105920;-75
2022/12/24 02:07:47;;;;;;;50.80;26.00;;;;;;;7.33;89.02;99071.33;125894;1305;107510;-74
2022/12/24 02:10:52;;;;;;;48.80;27.20;;;;;;;7.34;89.19;99067.75;125931;1297;107657;-74
2022/12/24 02:14:01;;;;;;;47.00;26.10;;;;;;;7.35;89.20;99068.10;125920;1310;107683;-74
2022/12/24 02:17:18;;;;;;;50.60;26.50;;;;;;;7.34;89.01;99068.11;125872;1307;107376;-73
2022/12/24 02:20:43;;;;;;;41.80;24.00;;;;;;;7.31;88.96;99068.07;126001;1310;107614;-73
2022/12/24 02:24:09;;;;;;;39.70;20.70;;;;;;;7.27;89.01;99066.52;126009;1306;107287;-74
2022/12/24 02:27:22;;;;;;;36.90;20.00;;;;;;;7.25;89.20;99067.36;125940;1306;107605;-74
2022/12/24 02:30:34;;;;;;;39.80;21.70;;;;;;;7.26;89.13;99067.09;125917;1297;107372;-74
2022/12/24 02:33:47;;;;;;;42.70;23.10;;;;;;;7.28;89.11;99064.83;125969;1310;107572;-73
2022/12/24 02:36:59;;;;;;;37.10;21.90;;;;;;;7.29;89.19;99061.38;125938;1306;107458;-74
2022/12/24 02:40:09;;;;;;;38.00;22.10;;;;;;;7.26;88.97;99061.10;125964;1307;108644;-74
2022/12/24 02:43:19;;;;;;;39.30;23.60;;;;;;;7.25;88.99;99061.19;125966;1306;107460;-75
2022/12/24 02:46:30;;;;;;;38.60;21.50;;;;;;;7.25;89.08;99061.98;125963;1296;107552;-75
2022/12/24 02:49:36;;;;;;;35.10;19.30;;;;;;;7.22;88.90;99063.34;125963;1303;105846;-75
2022/12/24 02:52:44;;;;;;;34.00;18.50;;;;;;;7.18;89.22;99070.41;125941;1310;107701;-74
2022/12/24 02:56:04;;;;;;;42.20;22.70;;;;;;;7.18;89.04;99070.65;125982;1296;107265;-75
2022/12/24 02:59:30;;;;;;;37.30;20.80;;;;;;;7.18;89.15;99066.36;125971;1305;107268;-75
2022/12/24 03:02:52;;;;;;;37.80;21.60;;;;;;;7.21;89.12;99064.70;125957;1307;107515;-75
2022/12/24 03:06:08;;;;;;;37.60;21.80;;;;;;;7.21;89.18;99062.67;125968;1306;107559;-74
2022/12/24 03:09:23;;;;;;;38.20;21.20;;;;;;;7.21;89.21;99063.97;125952;1307;106301;-74
2022/12/24 03:12:33;;;;;;;32.50;20.10;;;;;;;7.19;89.06;99064.19;125982;1310;107585;-74
2022/12/24 03:15:41;;;;;;;30.30;17.50;;;;;;;7.16;89.08;99060.06;125992;1305;107694;-74
2022/12/24 03:18:50;;;;;;;33.50;18.60;;;;;;;7.13;88.91;99062.31;125930;1299;107557;-75
2022/12/24 03:22:00;;;;;;;32.80;18.20;;;;;;;7.09;89.24;99060.58;125978;1307;106681;-74
2022/12/24 03:25:06;;;;;;;34.20;19.50;;;;;;;7.09;89.20;99065.94;125911;1307;107212;-74
2022/12/24 03:28:15;;;;;;;32.30;18.10;;;;;;;7.07;89.15;99068.16;125911;1306;107418;-74
2022/12/24 03:31:21;;;;;;;31.60;17.90;;;;;;;7.08;89.07;99069.55;125958;1307;107614;-74
2022/12/24 03:34:26;;;;;;;30.80;18.30;;;;;;;7.00;89.01;99069.12;125937;1307;107145;-74
2022/12/24 03:37:32;;;;;;;26.60;15.40;;;;;;;6.99;89.38;99066.70;126034;1297;107522;-74
2022/12/24 03:40:37;;;;;;;28.40;14.40;;;;;;;7.00;89.29;99067.55;126034;1290;107570;-74
2022/12/24 03:43:43;;;;;;;27.60;15.90;;;;;;;6.99;88.99;99070.45;125971;1297;107608;-74
2022/12/24 03:46:49;;;;;;;27.70;15.90;;;;;;;7.01;89.28;99068.30;125932;1292;107564;-75
2022/12/24 03:49:54;;;;;;;25.00;15.20;;;;;;;7.05;89.22;99070.70;126010;1296;107319;-75
2022/12/24 03:53:00;;;;;;;29.20;16.10;;;;;;;7.09;89.26;99070.88;126099;1291;108223;-75
2022/12/24 03:56:06;;;;;;;26.70;15.10;;;;;;;7.10;89.15;99067.07;126054;1296;107367;-75
2022/12/24 03:59:11;;;;;;;24.30;15.10;;;;;;;7.10;89.11;99072.58;125995;1294;105911;-75
2022/12/24 04:02:17;;;;;;;21.60;12.70;;;;;;;7.04;88.91;99076.51;126104;1289;107563;-75
2022/12/24 04:05:23;;;;;;;19.80;11.50;;;;;;;6.99;89.18;99071.56;126114;1289;107542;-75
2022/12/24 04:08:28;;;;;;;23.60;13.30;;;;;;;6.98;89.05;99074.31;126189;1295;107710;-76
2022/12/24 04:11:34;;;;;;;21.10;12.90;;;;;;;6.98;89.06;99071.77;126095;1290;107299;-75
2022/12/24 04:14:39;;;;;;;21.10;13.70;;;;;;;7.00;88.79;99067.73;126012;1296;107272;-74
2022/12/24 04:17:45;;;;;;;24.40;14.70;;;;;;;6.96;89.01;99066.73;125961;1307;107587;-75
2022/12/24 04:20:50;;;;;;;23.90;14.40;;;;;;;6.94;88.96;99065.89;126023;1307;107671;-75
2022/12/24 04:23:56;;;;;;;21.70;12.90;;;;;;;6.89;89.12;99063.55;125974;1307;107558;-74
2022/12/24 04:27:01;;;;;;;20.50;12.30;;;;;;;6.86;89.20;99061.08;125969;1305;106594;-74
2022/12/24 04:30:09;;;;;;;23.60;14.30;;;;;;;6.82;89.03;99061.63;125988;1310;107561;-75
2022/12/24 04:33:15;;;;;;;25.70;14.90;;;;;;;6.81;88.96;99064.53;126016;1306;107604;-75
2022/12/24 04:36:21;;;;;;;26.30;15.10;;;;;;;6.81;88.89;99065.65;125995;1307;107555;-74
2022/12/24 04:39:27;;;;;;;24.80;15.30;;;;;;;6.80;89.12;99066.39;125970;1307;106614;-76
2022/12/24 04:42:32;;;;;;;26.10;15.50;;;;;;;6.82;89.06;99073.98;125951;1307;107564;-75
2022/12/24 04:45:38;;;;;;;23.00;13.30;;;;;;;6.80;89.16;99071.02;125965;1306;107667;-77
2022/12/24 04:48:44;;;;;;;20.80;11.80;;;;;;;6.78;89.10;99068.95;125989;1295;106330;-75
2022/12/24 04:51:49;;;;;;;25.70;15.30;;;;;;;6.77;88.86;99065.14;126005;1297;108706;-73
2022/12/24 04:54:55;;;;;;;29.60;14.90;;;;;;;6.78;89.18;99060.96;125945;1306;107616;-71
2022/12/24 04:58:00;;;;;;;24.30;14.70;;;;;;;6.80;89.14;99063.77;126012;1297;106655;-74
2022/12/24 05:01:07;;;;;;;23.00;14.30;;;;;;;6.78;89.08;99065.52;125940;1307;107551;-75
2022/12/24 05:04:12;;;;;;;22.70;14.50;;;;;;;6.78;89.18;99069.65;125990;1310;107560;-74
2022/12/24 05:07:18;;;;;;;18.80;11.40;;;;;;;6.76;89.08;99071.29;125954;1297;107564;-74
2022/12/24 05:10:24;;;;;;;20.60;12.00;;;;;;;6.74;89.20;99071.85;125929;1306;107599;-75
2022/12/24 05:13:30;;;;;;;23.70;13.90;;;;;;;6.74;89.04;99072.71;125960;1307;107592;-75
2022/12/24 05:16:37;;;;;;;21.20;13.00;;;;;;;6.74;89.06;99070.72;125978;1303;108743;-75
2022/12/24 05:19:42;;;;;;;23.70;13.50;;;;;;;6.75;89.08;99072.81;125993;1303;106675;-74
2022/12/24 05:26:23;;;;;;;19.90;13.30;;;;;;;6.72;89.25;99075.91;125943;1304;107570;-74
2022/12/24 05:29:28;;;;;;;17.50;11.00;;;;;;;6.70;89.19;99072.41;125934;1307;107413;-74
2022/12/24 05:32:34;;;;;;;20.00;11.00;;;;;;;6.67;88.90;99072.84;125939;1310;107617;-74
2022/12/24 05:35:39;;;;;;;18.50;11.10;;;;;;;6.66;88.99;99072.83;125904;1307;107384;-75
2022/12/24 05:38:45;;;;;;;19.30;12.10;;;;;;;6.68;89.44;99074.50;125957;1307;108532;-75
2022/12/24 05:41:50;;;;;;;19.40;12.00;;;;;;;6.70;89.22;99078.17;125963;1304;106744;-75
2022/12/24 05:44:56;;;;;;;21.00;12.10;;;;;;;6.71;88.94;99076.94;125977;1310;105925;-74
2022/12/24 05:48:01;;;;;;;31.50;15.50;;;;;;;6.71;89.14;99078.16;125995;1306;107520;-73
2022/12/24 05:51:09;;;;;;;37.00;17.70;;;;;;;6.70;88.87;99080.02;125994;1298;107529;-74
2022/12/24 05:54:15;;;;;;;31.20;13.60;;;;;;;6.66;89.44;99079.95;126012;1303;107407;-74
2022/12/24 05:57:20;;;;;;;32.50;13.90;;;;;;;6.65;88.99;99083.98;125977;1305;107334;-74
2022/12/24 06:00:26;;;;;;;20.10;11.40;;;;;;;6.64;89.30;99089.95;125940;1306;107380;-74
2022/12/24 06:03:32;;;;;;;20.60;11.60;;;;;;;6.63;88.97;99094.65;125962;1306;105906;-74
2022/12/24 06:06:38;;;;;;;15.10;10.00;;;;;;;6.63;89.09;99097.16;126010;1310;108779;-75
2022/12/24 06:09:43;;;;;;;16.90;11.10;;;;;;;6.64;89.15;99093.16;125959;1310;107546;-74
2022/12/24 06:12:49;;;;;;;16.20;10.80;;;;;;;6.62;89.10;99096.31;125987;1310;107715;-74
2022/12/24 06:15:55;;;;;;;16.10;9.80;;;;;;;6.59;89.13;99100.06;125947;1305;108090;-74
2022/12/24 06:19:01;;;;;;;16.00;9.60;;;;;;;6.58;89.26;99103.53;125963;1307;107737;-76
2022/12/24 06:22:07;;;;;;;13.30;8.80;;;;;;;6.58;89.00;99102.95;125962;1307;107583;-75
2022/12/24 06:25:12;;;;;;;14.30;9.50;;;;;;;6.59;89.22;99108.85;125933;1307;107530;-74
2022/12/24 06:28:19;;;;;;;14.40;9.40;;;;;;;6.60;89.12;99111.59;125989;1306;107671;-74
2022/12/24 06:31:25;;;;;;;15.20;9.40;;;;;;;6.60;89.25;99113.38;125984;1305;107809;-74
2022/12/24 06:34:30;;;;;;;14.50;10.10;;;;;;;6.60;89.19;99116.23;126000;1297;107590;-74
2022/12/24 06:37:36;;;;;;;13.40;8.90;;;;;;;6.56;89.01;99115.30;126007;1306;107702;-75
2022/12/24 06:40:43;;;;;;;12.20;8.00;;;;;;;6.55;88.95;99119.05;125922;1307;107347;-75
2022/12/24 06:43:50;;;;;;;16.40;9.60;;;;;;;6.55;89.19;99119.17;125972;1305;107240;-74
2022/12/24 06:46:56;;;;;;;14.00;9.40;;;;;;;6.57;89.30;99118.97;125877;1306;107717;-74
2022/12/24 06:50:01;;;;;;;16.60;11.40;;;;;;;6.59;89.41;99115.93;125925;1306;107286;-74
2022/12/24 06:53:07;;;;;;;16.70;11.40;;;;;;;6.60;89.12;99122.15;125899;1307;106544;-73
2022/12/24 06:56:14;;;;;;;17.70;11.00;;;;;;;6.60;89.24;99127.50;125932;1305;107496;-74
2022/12/24 06:59:20;;;;;;;16.40;10.40;;;;;;;6.58;89.28;99133.91;125870;1296;107518;-73
2022/12/24 07:02:26;;;;;;;20.40;10.40;;;;;;;6.55;89.20;99135.20;125871;1297;107403;-74
2022/12/24 07:05:31;;;;;;;25.50;12.80;;;;;;;6.55;89.28;99136.27;126140;1298;106404;-76
2022/12/24 07:08:37;;;;;;;20.40;12.70;;;;;;;6.58;89.34;99144.65;126060;1304;107717;-81
2022/12/24 07:11:42;;;;;;;19.60;12.00;;;;;;;6.60;89.34;99146.02;126100;1304;106660;-79
2022/12/24 07:14:48;;;;;;;20.10;13.40;;;;;;;6.62;89.25;99146.13;125988;1310;107467;-80
2022/12/24 07:17:54;;;;;;;24.80;16.60;;;;;;;6.62;89.14;99150.73;125951;1305;109255;-77
2022/12/24 07:21:00;;;;;;;35.00;25.50;;;;;;;6.60;89.26;99151.38;126315;1287;107383;-78
2022/12/24 07:24:06;;;;;;;27.40;18.40;;;;;;;6.56;89.41;99157.88;126006;1310;107693;-78
2022/12/24 07:27:12;;;;;;;21.80;15.60;;;;;;;6.54;89.24;99160.74;125944;1307;107460;-76
2022/12/24 07:30:18;;;;;;;29.50;20.10;;;;;;;6.54;89.26;99163.42;125975;1305;107576;-78
2022/12/24 07:33:24;;;;;;;34.10;24.70;;;;;;;6.56;89.30;99164.30;125979;1297;107453;-76
2022/12/24 07:36:30;;;;;;;26.90;19.60;;;;;;;6.59;89.62;99166.84;125988;1310;107422;-82
2022/12/24 07:39:35;;;;;;;22.00;16.10;;;;;;;6.58;89.17;99171.45;125975;1305;105501;-75
2022/12/24 07:42:41;;;;;;;21.70;15.30;;;;;;;6.58;89.39;99169.00;125999;1305;107585;-75
2022/12/24 07:45:46;;;;;;;18.80;13.10;;;;;;;6.56;89.51;99175.54;125960;1306;107285;-73
2022/12/24 07:48:52;;;;;;;18.90;12.00;;;;;;;6.56;89.31;99181.73;125980;1302;107754;-75
2022/12/24 07:51:57;;;;;;;18.60;11.90;;;;;;;6.57;89.27;99188.06;125937;1302;107546;-76
2022/12/24 07:55:03;;;;;;;18.20;11.80;;;;;;;6.60;89.70;99190.77;125952;1310;106690;-77
2022/12/24 07:58:08;;;;;;;16.20;11.50;;;;;;;6.64;89.27;99192.48;125979;1307;107567;-77
2022/12/24 08:01:14;;;;;;;16.50;11.80;;;;;;;6.65;89.20;99194.46;126017;1307;107642;-79
2022/12/24 08:04:19;;;;;;;17.20;11.50;;;;;;;6.66;89.54;99193.61;126006;1305;107594;-76
2022/12/24 08:07:25;;;;;;;18.10;10.60;;;;;;;6.66;89.38;99193.28;125978;1294;107723;-76
2022/12/24 08:10:30;;;;;;;17.40;11.10;;;;;;;6.66;89.23;99192.98;125983;1306;107312;-75
2022/12/24 08:13:36;;;;;;;22.30;14.20;;;;;;;6.64;89.27;99192.77;125993;1305;107511;-75
2022/12/24 08:16:42;;;;;;;19.30;12.60;;;;;;;6.69;89.29;99199.52;126003;1310;107479;-75
2022/12/24 08:19:47;;;;;;;18.30;12.70;;;;;;;6.75;89.50;99204.31;126015;1307;107649;-74
2022/12/24 08:22:54;;;;;;;20.60;13.40;;;;;;;6.77;89.47;99204.56;125965;1306;107566;-74
2022/12/24 08:25:59;;;;;;;22.70;15.10;;;;;;;6.79;89.41;99213.02;125974;1307;107560;-75
2022/12/24 08:29:05;;;;;;;23.40;14.20;;;;;;;6.78;89.41;99220.02;125982;1306;107473;-75
2022/12/24 08:32:11;;;;;;;17.90;12.00;;;;;;;6.80;89.37;99219.89;126014;1306;107540;-75
2022/12/24 08:35:17;;;;;;;17.80;12.30;;;;;;;6.83;89.69;99223.59;126020;1304;107323;-74
2022/12/24 08:38:23;;;;;;;20.30;13.00;;;;;;;6.85;89.22;99228.71;126029;1302;107603;-72
2022/12/24 08:41:28;;;;;;;20.60;14.00;;;;;;;6.84;89.27;99234.45;125935;1302;107447;-74
2022/12/24 08:44:34;;;;;;;19.30;13.80;;;;;;;6.85;89.59;99238.79;125877;1303;107422;-73
2022/12/24 08:47:40;;;;;;;18.30;12.40;;;;;;;6.85;89.58;99245.34;125956;1306;107197;-72
2022/12/24 08:50:46;;;;;;;18.00;11.90;;;;;;;6.84;89.36;99247.23;125991;1310;107284;-72
2022/12/24 08:53:52;;;;;;;18.10;12.00;;;;;;;6.85;89.40;99252.71;125968;1306;107403;-72
2022/12/24 08:56:57;;;;;;;19.00;12.90;;;;;;;6.88;89.51;99248.43;125976;1307;108636;-73
2022/12/24 09:00:04;;;;;;;21.70;15.20;;;;;;;6.93;89.50;99244.05;125981;1310;107403;-73
2022/12/24 09:03:14;;;;;;;23.10;14.50;;;;;;;7.00;89.42;99248.42;125974;1295;107561;-73
2022/12/24 09:06:19;;;;;;;25.20;16.10;;;;;;;7.06;89.13;99250.84;125986;1309;107416;-72
2022/12/24 09:09:25;;;;;;;19.00;14.40;;;;;;;7.09;89.34;99249.80;125967;1310;107562;-73
2022/12/24 09:12:30;;;;;;;19.50;13.70;;;;;;;7.11;89.35;99255.84;125959;1303;107531;-73
2022/12/24 09:15:36;;;;;;;14.70;10.00;;;;;;;7.10;89.18;99262.66;126034;1299;107413;-77
2022/12/24 09:18:42;;;;;;;15.30;11.00;;;;;;;7.07;89.41;99263.65;126012;1310;107424;-72
2022/12/24 09:21:47;;;;;;;31.40;18.60;;;;;;;7.08;89.29;99265.77;126048;1294;107344;-76
2022/12/24 09:24:54;;;;;;;31.50;18.40;;;;;;;7.13;89.31;99271.74;126024;1310;109213;-72
2022/12/24 09:28:00;;;;;;;28.90;16.60;;;;;;;7.16;89.20;99276.00;126046;1305;106784;-73
2022/12/24 09:31:08;;;;;;;18.50;11.90;;;;;;;7.14;89.13;99279.78;125992;1306;107479;-72
2022/12/24 09:34:13;;;;;;;18.30;12.90;;;;;;;7.11;89.13;99282.85;126076;1310;108715;-73
2022/12/24 09:37:19;;;;;;;14.50;9.90;;;;;;;7.11;89.30;99283.10;126019;1310;107584;-73
2022/12/24 09:40:29;;;;;;;14.90;9.60;;;;;;;7.06;89.01;99286.33;125894;1303;105657;-72
2022/12/24 09:43:37;;;;;;;17.50;12.00;;;;;;;7.05;89.18;99291.06;125927;1305;107630;-77
2022/12/24 09:46:45;;;;;;;18.20;12.40;;;;;;;7.07;89.20;99298.80;125988;1286;107745;-73
2022/12/24 09:49:54;;;;;;;19.00;13.80;;;;;;;7.08;89.30;99301.55;125942;1296;107862;-73
2022/12/24 09:53:04;;;;;;;19.90;13.90;;;;;;;7.09;89.09;99303.91;125993;1296;107400;-73
2022/12/24 09:56:15;;;;;;;19.00;12.70;;;;;;;7.08;89.10;99307.86;126005;1295;107511;-73
2022/12/24 09:59:24;;;;;;;16.50;12.50;;;;;;;7.08;89.21;99311.11;125962;1296;107644;-72
2022/12/24 10:02:31;;;;;;;16.90;11.20;;;;;;;7.04;88.94;99310.19;125958;1286;109404;-73
2022/12/24 10:05:42;;;;;;;17.60;12.00;;;;;;;7.03;89.02;99314.61;125892;1302;107638;-73
2022/12/24 10:09:02;;;;;;;20.30;12.10;;;;;;;7.04;89.10;99319.59;125923;1310;107279;-73
2022/12/24 10:12:16;;;;;;;19.00;11.80;;;;;;;7.07;89.31;99323.58;125918;1310;107399;-73
2022/12/24 10:15:29;;;;;;;21.10;13.50;;;;;;;7.08;89.03;99331.77;125966;1304;107864;-74
2022/12/24 10:18:35;;;;;;;;;;;;;;;7.06;89.09;99335.20;125986;1306;107706;-73
2022/12/24 10:21:50;;;;;;;21.70;14.10;;;;;;;7.06;89.17;99335.66;125897;1310;107525;-73
2022/12/24 10:25:03;;;;;;;18.10;12.60;;;;;;;7.07;89.32;99332.42;125839;1297;107417;-73
2022/12/24 10:28:16;;;;;;;20.80;13.40;;;;;;;7.08;89.07;99337.13;125869;1310;107680;-73
2022/12/24 10:31:25;;;;;;;20.50;13.00;;;;;;;7.07;89.07;99344.55;125975;1297;107524;-72
2022/12/24 10:34:35;;;;;;;22.80;14.40;;;;;;;7.10;89.20;99347.48;125962;1310;107606;-72
2022/12/24 10:37:43;;;;;;;24.90;15.50;;;;;;;7.17;89.27;99348.95;125918;1306;107639;-73
2022/12/24 10:40:51;;;;;;;19.50;13.10;;;;;;;7.17;88.89;99351.25;125889;1307;107435;-73
2022/12/24 10:43:57;;;;;;;22.80;13.50;;;;;;;7.16;89.15;99358.08;125866;1306;107551;-72
2022/12/24 10:47:05;;;;;;;20.70;13.00;;;;;;;7.16;88.70;99365.88;125957;1310;107414;-73
2022/12/24 10:50:19;;;;;;;17.80;11.90;;;;;;;7.06;88.89;99371.37;125882;1302;107444;-73
2022/12/24 10:53:32;;;;;;;20.80;13.70;;;;;;;7.00;88.97;99382.61;125931;1307;107570;-72
2022/12/24 10:56:43;;;;;;;19.00;13.20;;;;;;;6.93;89.05;99384.02;125923;1295;107402;-73
2022/12/24 10:59:54;;;;;;;18.80;13.30;;;;;;;6.99;89.43;99391.26;125977;1310;107567;-72
2022/12/24 11:03:24;;;;;;;24.10;16.80;;;;;;;7.00;89.27;99396.41;125878;1306;107620;-72
2022/12/24 11:06:30;;;;;;;21.20;13.70;;;;;;;6.93;88.93;99400.79;125872;1310;107557;-70
2022/12/24 11:09:40;;;;;;;21.70;14.10;;;;;;;6.91;89.29;99405.11;125823;1302;108294;-70
2022/12/24 11:12:50;;;;;;;17.90;11.30;;;;;;;6.90;89.00;99413.52;125794;1307;107365;-70
2022/12/24 11:16:07;;;;;;;16.40;11.10;;;;;;;6.86;89.16;99415.80;125741;1310;107396;-72
2022/12/24 11:19:19;;;;;;;24.00;14.80;;;;;;;6.83;89.22;99416.60;125943;1307;107121;-70
2022/12/24 11:22:26;;;;;;;28.90;16.40;;;;;;;6.84;89.27;99423.11;125817;1305;107458;-70
2022/12/24 11:25:34;;;;;;;27.10;16.50;;;;;;;6.84;89.00;99425.55;125765;1310;108200;-70
2022/12/24 11:28:39;;;;;;;26.80;15.10;;;;;;;6.83;89.13;99433.63;125887;1300;107563;-70
2022/12/24 11:31:46;;;;;;;29.60;18.30;;;;;;;6.81;89.06;99437.49;125698;1305;107226;-70
2022/12/24 11:34:52;;;;;;;22.30;14.10;;;;;;;6.71;88.94;99445.23;125857;1305;107658;-70
2022/12/24 11:38:12;;;;;;;21.40;13.30;;;;;;;6.62;88.84;99449.04;125827;1305;106967;-71
2022/12/24 11:41:17;;;;;;;24.20;15.40;;;;;;;6.64;89.35;99449.38;125713;1302;108154;-70
2022/12/24 11:44:26;;;;;;;29.30;17.00;;;;;;;6.68;88.95;99449.00;125779;1302;107576;-70
2022/12/24 11:47:38;;;;;;;25.50;14.60;;;;;;;6.71;88.84;99452.84;125794;1306;107624;-70
2022/12/24 11:50:44;;;;;;;27.00;16.50;;;;;;;6.73;89.18;99451.02;125911;1303;107525;-70
2022/12/24 11:53:56;;;;;;;29.00;16.40;;;;;;;6.75;89.01;99452.06;125891;1306;108156;-70
2022/12/24 11:57:03;;;;;;;26.00;16.10;;;;;;;6.70;88.87;99462.46;125900;1310;109350;-71
2022/12/24 12:00:13;;;;;;;33.10;19.10;;;;;;;6.60;88.66;99471.85;125757;1307;108021;-70
2022/12/24 12:03:28;;;;;;;27.70;16.60;;;;;;;6.52;88.91;99478.17;125865;1307;106449;-70
2022/12/24 12:06:39;;;;;;;27.30;15.80;;;;;;;6.47;89.10;99487.78;125985;1296;107840;-71
2022/12/24 12:09:49;;;;;;;30.30;17.00;;;;;;;6.46;89.05;99490.69;125941;1297;109936;-70
2022/12/24 12:13:00;;;;;;;30.20;16.90;;;;;;;6.41;88.90;99491.66;125968;1310;107530;-70
2022/12/24 12:16:19;;;;;;;26.40;15.70;;;;;;;6.39;89.29;99491.75;126023;1291;107380;-70
2022/12/24 12:19:27;;;;;;;26.50;15.60;;;;;;;6.34;89.10;99499.09;125823;1305;108022;-70
2022/12/24 12:22:42;;;;;;;25.60;13.40;;;;;;;6.25;89.43;99505.76;125841;1302;108741;-72
2022/12/24 12:25:51;;;;;;;26.30;13.70;;;;;;;6.19;89.43;99508.77;125899;1307;107637;-70
2022/12/24 12:29:01;;;;;;;25.90;14.60;;;;;;;6.19;89.61;99521.16;125907;1297;108777;-72
2022/12/24 12:32:13;;;;;;;27.00;14.40;;;;;;;6.19;89.23;99527.11;125957;1307;107479;-70
2022/12/24 12:35:29;;;;;;;25.90;14.90;;;;;;;6.22;89.24;99533.06;125927;1307;107253;-70
2022/12/24 12:38:35;;;;;;;27.60;15.30;;;;;;;6.21;89.36;99538.65;125966;1310;108623;-71
2022/12/24 12:41:54;;;;;;;27.50;16.80;;;;;;;6.22;89.44;99543.64;125855;1305;107505;-71
2022/12/24 12:45:13;;;;;;;26.00;14.80;;;;;;;6.20;89.30;99551.75;125928;1305;107558;-70
2022/12/24 12:48:35;;;;;;;25.80;15.40;;;;;;;6.20;89.55;99550.36;125960;1305;107606;-71
2022/12/24 12:51:48;;;;;;;30.80;17.50;;;;;;;6.24;89.45;99556.70;125943;1299;107338;-71
2022/12/24 12:55:06;;;;;;;33.60;18.10;;;;;;;6.30;89.30;99566.41;125938;1307;107556;-72
2022/12/24 12:58:20;;;;;;;30.00;16.40;;;;;;;6.34;89.38;99566.44;125946;1310;107314;-71
2022/12/24 13:01:33;;;;;;;31.00;17.10;;;;;;;6.37;89.56;99577.60;126141;1306;108715;-71
2022/12/24 13:05:06;;;;;;;36.90;19.70;;;;;;;6.37;88.90;99582.73;125960;1306;107629;-71
2022/12/24 13:08:30;;;;;;;31.70;16.70;;;;;;;6.33;89.33;99590.89;126003;1307;108635;-71
2022/12/24 13:11:54;;;;;;;31.00;16.90;;;;;;;6.27;88.97;99592.98;125939;1306;107582;-71
2022/12/24 13:15:08;;;;;;;39.90;18.90;;;;;;;6.31;89.24;99596.13;125921;1307;107323;-70
2022/12/24 13:18:38;;;;;;;36.10;18.90;;;;;;;6.40;89.19;99602.76;125950;1307;107308;-70
2022/12/24 13:21:47;;;;;;;38.70;20.90;;;;;;;6.46;88.93;99604.10;126028;1297;107366;-71
2022/12/24 13:24:55;;;;;;;32.40;18.40;;;;;;;6.51;89.08;99606.64;126027;1297;108643;-70
2022/12/24 13:28:34;;;;;;;34.40;17.70;;;;;;;6.51;88.84;99609.88;125098;1297;1220341;-71
2022/12/24 13:31:40;;;;;;;32.80;17.90;;;;;;;6.48;88.96;99612.05;125670;1299;110434;-71
2022/12/24 13:34:49;;;;;;;31.90;16.70;;;;;;;6.46;89.05;99613.35;125465;1313;108178;-70
2022/12/24 13:38:14;;;;;;;29.10;15.40;;;;;;;6.45;89.25;99619.73;125483;1306;108110;-70
2022/12/24 13:41:39;;;;;;;30.00;16.40;;;;;;;6.49;89.03;99630.73;125621;1306;105749;-71
2022/12/24 13:44:45;;;;;;;33.00;18.00;;;;;;;6.52;89.28;99635.04;125654;1302;107288;-72
2022/12/24 13:47:50;;;;;;;34.90;20.00;;;;;;;6.54;89.03;99636.29;125695;1312;107526;-71
2022/12/24 13:50:58;;;;;;;33.10;18.10;;;;;;;6.55;88.85;99640.44;125653;1305;107572;-71
2022/12/24 13:54:04;;;;;;;34.00;17.60;;;;;;;6.52;88.80;99645.61;125622;1304;108135;-70
2022/12/24 13:57:29;;;;;;;32.70;16.60;;;;;;;6.52;89.23;99654.42;125691;1313;107410;-71
2022/12/24 14:00:45;;;;;;;27.00;15.30;;;;;;;6.51;88.97;99657.52;125599;1305;107260;-70
2022/12/24 14:03:54;;;;;;;31.10;18.10;;;;;;;6.48;88.78;99663.69;125662;1306;107601;-71
2022/12/24 14:07:02;;;;;;;59.90;30.50;;;;;;;6.48;89.12;99674.07;125625;1305;107367;-70
2022/12/24 14:10:23;;;;;;;41.10;21.60;;;;;;;6.50;89.06;99684.68;125437;1312;107904;-70
2022/12/24 14:14:06;;;;;;;38.00;22.10;;;;;;;6.46;88.80;99691.95;125650;1306;107420;-70
2022/12/24 14:17:22;;;;;;;34.70;20.40;;;;;;;6.43;89.03;99695.20;125565;1302;107587;-70
2022/12/24 14:20:28;;;;;;;38.00;22.10;;;;;;;6.41;88.90;99704.46;125612;1306;107431;-70
2022/12/24 14:23:49;;;;;;;31.00;18.10;;;;;;;6.37;88.96;99703.56;125656;1299;107571;-70
2022/12/24 14:26:58;;;;;;;33.80;18.80;;;;;;;6.32;89.03;99703.82;125733;1296;108579;-70